createdAt,value
2018-06-04T00:00:28.843Z,29.30
2018-06-04T00:01:02.136Z,29.42
2018-06-04T00:01:35.340Z,28.40
2018-06-04T00:02:08.598Z,32.67
2018-06-04T00:02:41.888Z,32.42
2018-06-04T00:03:15.128Z,32.23
2018-06-04T00:03:48.346Z,32.28
2018-06-04T00:04:21.590Z,32.63
2018-06-04T00:04:54.832Z,34.55
2018-06-04T00:05:28.076Z,32.88
2018-06-04T00:06:01.336Z,31.73
2018-06-04T00:06:34.574Z,32.50
2018-06-04T00:07:07.814Z,29.63
2018-06-04T00:07:41.070Z,32.63
2018-06-04T00:08:14.370Z,27.70
2018-06-04T00:08:47.616Z,31.57
2018-06-04T00:09:20.864Z,29.72
2018-06-04T00:09:54.185Z,29.70
2018-06-04T00:10:27.442Z,30.10
2018-06-04T00:11:00.676Z,32.45
2018-06-04T00:11:33.970Z,30.45
2018-06-04T00:12:07.216Z,31.77
2018-06-04T00:12:40.472Z,32.50
2018-06-04T00:13:13.755Z,29.40
2018-06-04T00:13:46.992Z,32.40
2018-06-04T00:14:20.270Z,31.25
2018-06-04T00:14:53.484Z,32.48
2018-06-04T00:15:26.700Z,28.15
2018-06-04T00:15:59.920Z,33.73
2018-06-04T00:16:33.178Z,28.98
2018-06-04T00:17:06.452Z,27.70
2018-06-04T00:17:39.682Z,27.95
2018-06-04T00:18:12.936Z,27.48
2018-06-04T00:18:46.205Z,26.20
2018-06-04T00:19:19.414Z,29.27
2018-06-04T00:19:52.708Z,31.48
2018-06-04T00:20:25.931Z,30.52
2018-06-04T00:20:59.140Z,28.35
2018-06-04T00:21:32.363Z,32.03
2018-06-04T00:22:05.642Z,29.10
2018-06-04T00:22:38.885Z,27.50
2018-06-04T00:23:12.090Z,29.63
2018-06-04T00:23:45.316Z,27.55
2018-06-04T00:24:18.600Z,30.10
2018-06-04T00:24:51.868Z,29.75
2018-06-04T00:25:25.118Z,30.90
2018-06-04T00:25:58.429Z,27.80
2018-06-04T00:26:31.654Z,27.95
2018-06-04T00:27:04.920Z,28.75
2018-06-04T00:27:38.277Z,28.57
2018-06-04T00:28:11.486Z,31.17
2018-06-04T00:28:44.727Z,30.60
2018-06-04T00:29:17.985Z,32.98
2018-06-04T00:29:51.191Z,26.80
2018-06-04T00:30:24.492Z,32.05
2018-06-04T00:30:57.729Z,31.60
2018-06-04T00:31:30.969Z,33.25
2018-06-04T00:32:04.224Z,34.27
2018-06-04T00:32:37.406Z,29.70
2018-06-04T00:33:10.645Z,30.30
2018-06-04T00:33:43.865Z,33.50
2018-06-04T00:34:17.078Z,32.60
2018-06-04T00:34:50.313Z,31.10
2018-06-04T00:35:23.560Z,31.60
2018-06-04T00:35:56.785Z,36.10
2018-06-04T00:36:29.992Z,31.37
2018-06-04T00:37:03.246Z,30.70
2018-06-04T00:37:36.485Z,29.57
2018-06-04T00:38:09.707Z,32.42
2018-06-04T00:38:42.915Z,32.13
2018-06-04T00:39:16.139Z,30.25
2018-06-04T00:39:49.401Z,31.62
2018-06-04T00:40:22.624Z,27.50
2018-06-04T00:40:55.877Z,30.70
2018-06-04T00:41:29.125Z,32.15
2018-06-04T00:42:02.355Z,35.35
2018-06-04T00:42:35.580Z,31.37
2018-06-04T00:43:08.812Z,29.50
2018-06-04T00:43:42.031Z,30.57
2018-06-04T00:44:15.247Z,31.93
2018-06-04T00:44:48.703Z,30.60
2018-06-04T00:45:21.935Z,32.65
2018-06-04T00:45:55.178Z,31.85
2018-06-04T00:46:28.397Z,29.95
2018-06-04T00:47:01.681Z,30.57
2018-06-04T00:47:34.903Z,30.00
2018-06-04T00:48:08.100Z,31.93
2018-06-04T00:48:41.311Z,34.80
2018-06-04T00:49:14.542Z,31.00
2018-06-04T00:49:47.759Z,31.95
2018-06-04T00:50:21.032Z,31.35
2018-06-04T00:50:54.267Z,32.10
2018-06-04T00:51:27.555Z,34.25
2018-06-04T00:52:00.798Z,32.80
2018-06-04T00:52:34.031Z,32.42
2018-06-04T00:53:07.255Z,30.50
2018-06-04T00:56:24.655Z,24.87
2018-06-04T00:56:57.889Z,28.25
2018-06-04T00:57:31.097Z,28.25
2018-06-04T00:58:05.116Z,27.77
2018-06-04T00:58:38.299Z,26.02
2018-06-04T00:59:11.481Z,28.40
2018-06-04T00:59:44.715Z,27.58
2018-06-04T01:00:17.971Z,25.27
2018-06-04T01:00:51.225Z,24.55
2018-06-04T01:01:24.491Z,23.20
2018-06-04T01:01:57.727Z,23.38
2018-06-04T01:02:30.913Z,25.25
2018-06-04T01:03:04.171Z,27.70
2018-06-04T01:03:37.409Z,28.32
2018-06-04T01:04:10.620Z,26.02
2018-06-04T01:04:43.851Z,26.85
2018-06-04T01:05:17.079Z,24.27
2018-06-04T01:05:50.283Z,25.15
2018-06-04T01:06:23.623Z,26.02
2018-06-04T01:06:56.831Z,26.05
2018-06-04T01:07:30.098Z,26.23
2018-06-04T01:08:03.311Z,23.87
2018-06-04T01:08:36.589Z,24.43
2018-06-04T01:09:10.002Z,24.30
2018-06-04T01:09:43.315Z,27.65
2018-06-04T01:10:16.559Z,25.02
2018-06-04T01:10:49.833Z,21.80
2018-06-04T01:11:23.091Z,20.72
2018-06-04T01:11:56.387Z,23.45
2018-06-04T01:12:29.633Z,23.77
2018-06-04T01:13:02.927Z,25.12
2018-06-04T01:13:36.173Z,21.85
2018-06-04T01:14:09.532Z,24.90
2018-06-04T01:14:42.768Z,25.37
2018-06-04T01:15:15.975Z,24.12
2018-06-04T01:15:49.256Z,24.57
2018-06-04T01:16:22.593Z,23.40
2018-06-04T01:16:55.825Z,22.20
2018-06-04T01:17:29.063Z,24.15
2018-06-04T01:18:02.292Z,25.62
2018-06-04T01:18:36.309Z,25.32
2018-06-04T01:19:09.596Z,23.67
2018-06-04T01:19:42.891Z,22.65
2018-06-04T01:20:16.129Z,22.20
2018-06-04T01:20:49.368Z,20.12
2018-06-04T01:21:22.603Z,20.68
2018-06-04T01:21:55.856Z,22.73
2018-06-04T01:22:29.077Z,23.73
2018-06-04T01:23:02.335Z,20.85
2018-06-04T01:23:35.567Z,23.35
2018-06-04T01:24:08.886Z,22.30
2018-06-04T01:24:42.133Z,21.80
2018-06-04T01:25:15.373Z,23.73
2018-06-04T01:25:48.612Z,22.93
2018-06-04T01:26:21.868Z,21.80
2018-06-04T01:26:55.072Z,21.68
2018-06-04T01:27:28.298Z,21.15
2018-06-04T01:28:01.555Z,23.73
2018-06-04T01:28:34.784Z,23.87
2018-06-04T01:29:08.052Z,24.43
2018-06-04T01:29:41.273Z,21.42
2018-06-04T01:30:14.511Z,21.87
2018-06-04T01:30:47.804Z,25.25
2018-06-04T01:31:21.035Z,22.17
2018-06-04T01:31:54.262Z,22.37
2018-06-04T01:32:27.636Z,26.45
2018-06-04T01:33:00.950Z,27.25
2018-06-04T01:33:34.217Z,27.52
2018-06-04T01:34:07.425Z,25.48
2018-06-04T01:34:40.665Z,25.48
2018-06-04T01:35:13.890Z,29.12
2018-06-04T01:35:47.095Z,27.32
2018-06-04T01:36:20.360Z,27.65
2018-06-04T01:36:53.605Z,25.62
2018-06-04T01:37:26.801Z,31.25
2018-06-04T01:38:00.090Z,27.48
2018-06-04T01:38:33.316Z,26.15
2018-06-04T01:39:07.674Z,28.62
2018-06-04T01:39:40.916Z,28.38
2018-06-04T01:40:14.159Z,30.05
2018-06-04T01:40:47.450Z,30.20
2018-06-04T01:41:20.688Z,32.35
2018-06-04T01:41:53.995Z,28.25
2018-06-04T01:42:27.303Z,29.37
2018-06-04T01:43:00.561Z,25.92
2018-06-04T01:43:33.799Z,28.25
2018-06-04T01:44:07.048Z,28.70
2018-06-04T01:44:40.321Z,28.73
2018-06-04T01:45:13.571Z,28.57
2018-06-04T01:45:46.854Z,29.80
2018-06-04T01:46:20.123Z,27.82
2018-06-04T01:46:53.356Z,27.10
2018-06-04T01:47:26.624Z,25.57
2018-06-04T01:47:59.884Z,27.65
2018-06-04T01:48:33.112Z,31.82
2018-06-04T01:49:06.376Z,29.20
2018-06-04T01:49:39.584Z,25.57
2018-06-04T01:50:12.830Z,23.18
2018-06-04T01:50:46.059Z,26.45
2018-06-04T01:51:19.305Z,26.75
2018-06-04T01:51:52.566Z,27.30
2018-06-04T01:52:25.849Z,25.08
2018-06-04T01:52:59.054Z,23.18
2018-06-04T01:53:32.297Z,23.00
2018-06-04T01:54:05.546Z,23.92
2018-06-04T01:54:38.743Z,22.62
2018-06-04T01:55:11.952Z,21.73
2018-06-04T01:55:45.176Z,20.97
2018-06-04T01:56:18.431Z,21.87
2018-06-04T01:56:51.681Z,24.90
2018-06-04T01:57:24.892Z,24.30
2018-06-04T01:57:58.123Z,22.52
2018-06-04T01:58:31.395Z,22.70
2018-06-04T01:59:04.676Z,22.62
2018-06-04T01:59:37.923Z,23.57
2018-06-04T02:00:11.190Z,25.65
2018-06-04T02:00:44.490Z,21.70
2018-06-04T02:01:17.805Z,24.90
2018-06-04T02:01:51.166Z,23.65
2018-06-04T02:02:24.390Z,24.52
2018-06-04T02:02:57.790Z,22.60
2018-06-04T02:03:31.012Z,22.67
2018-06-04T02:04:04.274Z,23.85
2018-06-04T02:04:37.510Z,21.55
2018-06-04T02:05:10.739Z,25.23
2018-06-04T02:05:43.984Z,24.07
2018-06-04T02:06:17.224Z,25.88
2018-06-04T02:06:50.600Z,25.72
2018-06-04T02:07:23.862Z,25.82
2018-06-04T02:07:57.104Z,24.92
2018-06-04T02:08:30.316Z,22.50
2018-06-04T02:09:05.068Z,24.63
2018-06-04T02:09:38.325Z,25.57
2018-06-04T02:10:11.614Z,24.07
2018-06-04T02:10:44.854Z,25.45
2018-06-04T02:11:18.181Z,25.00
2018-06-04T02:11:51.387Z,26.10
2018-06-04T02:12:24.677Z,21.40
2018-06-04T02:12:57.906Z,25.68
2018-06-04T02:13:31.108Z,19.20
2018-06-04T02:14:04.399Z,24.00
2018-06-04T02:14:37.615Z,26.70
2018-06-04T02:15:10.853Z,23.98
2018-06-04T02:15:44.102Z,24.65
2018-06-04T02:16:17.302Z,23.10
2018-06-04T02:16:50.542Z,26.45
2018-06-04T02:17:23.986Z,25.68
2018-06-04T02:17:57.258Z,29.45
2018-06-04T02:18:30.492Z,25.15
2018-06-04T02:19:04.116Z,29.65
2018-06-04T02:19:37.392Z,30.80
2018-06-04T02:20:10.637Z,30.40
2018-06-04T02:20:43.904Z,26.95
2018-06-04T02:21:17.136Z,25.15
2018-06-04T02:21:50.379Z,31.37
2018-06-04T02:22:23.595Z,31.17
2018-06-04T02:22:56.830Z,30.65
2018-06-04T02:23:30.029Z,26.68
2018-06-04T02:24:03.260Z,31.70
2018-06-04T02:24:36.516Z,28.40
2018-06-04T02:25:09.756Z,29.02
2018-06-04T02:25:42.993Z,30.95
2018-06-04T02:26:16.212Z,33.18
2018-06-04T02:26:49.442Z,31.07
2018-06-04T02:27:22.678Z,28.60
2018-06-04T02:27:55.892Z,31.42
2018-06-04T02:28:29.134Z,28.98
2018-06-04T02:29:02.374Z,30.62
2018-06-04T02:29:35.602Z,29.67
2018-06-04T02:30:08.814Z,31.20
2018-06-04T02:30:42.096Z,32.15
2018-06-04T02:31:15.410Z,28.75
2018-06-04T02:31:48.691Z,27.65
2018-06-04T02:32:21.942Z,28.07
2018-06-04T02:32:55.186Z,27.48
2018-06-04T02:33:28.416Z,32.83
2018-06-04T02:34:01.617Z,31.23
2018-06-04T02:34:34.862Z,36.85
2018-06-04T02:35:08.139Z,30.37
2018-06-04T02:35:41.367Z,30.85
2018-06-04T02:36:14.643Z,35.45
2018-06-04T02:36:47.862Z,32.13
2018-06-04T02:37:21.103Z,32.65
2018-06-04T02:37:54.396Z,31.07
2018-06-04T02:38:27.613Z,34.43
2018-06-04T02:39:00.828Z,32.35
2018-06-04T02:39:34.062Z,34.27
2018-06-04T02:40:07.336Z,35.63
2018-06-04T02:40:40.606Z,31.60
2018-06-04T02:41:13.819Z,34.00
2018-06-04T02:41:47.138Z,34.10
2018-06-04T02:42:20.400Z,30.25
2018-06-04T02:42:53.606Z,34.03
2018-06-04T02:43:26.879Z,39.25
2018-06-04T02:44:00.134Z,35.58
2018-06-04T02:44:33.362Z,36.48
2018-06-04T02:45:06.621Z,35.75
2018-06-04T02:45:39.874Z,36.05
2018-06-04T02:46:13.096Z,33.63
2018-06-04T02:46:46.333Z,35.70
2018-06-04T02:47:19.662Z,30.75
2018-06-04T02:47:52.891Z,32.63
2018-06-04T02:48:26.147Z,33.67
2018-06-04T02:48:59.377Z,34.40
2018-06-04T02:49:32.605Z,37.08
2018-06-04T02:50:06.104Z,36.60
2018-06-04T02:50:39.186Z,36.60
2018-06-04T02:51:12.436Z,36.73
2018-06-04T02:51:45.647Z,35.95
2018-06-04T02:52:18.876Z,32.58
2018-06-04T02:52:52.116Z,31.52
2018-06-04T02:53:25.360Z,32.35
2018-06-04T02:53:58.622Z,35.58
2018-06-04T02:54:31.946Z,34.43
2018-06-04T02:55:05.206Z,32.17
2018-06-04T02:55:38.424Z,31.27
2018-06-04T02:56:11.736Z,32.65
2018-06-04T02:56:44.980Z,31.85
2018-06-04T02:57:18.220Z,31.10
2018-06-04T02:57:51.514Z,33.65
2018-06-04T02:58:24.777Z,31.68
2018-06-04T02:58:58.002Z,31.68
2018-06-04T02:59:31.274Z,31.75
2018-06-04T03:00:04.940Z,31.82
2018-06-04T03:00:38.204Z,30.20
2018-06-04T03:01:11.475Z,34.10
2018-06-04T03:01:44.720Z,28.55
2018-06-04T03:02:17.967Z,35.58
2018-06-04T03:02:51.264Z,29.70
2018-06-04T03:03:24.480Z,32.10
2018-06-04T03:03:57.674Z,30.57
2018-06-04T03:04:30.922Z,30.15
2018-06-04T03:05:04.208Z,29.87
2018-06-04T03:05:37.548Z,28.73
2018-06-04T03:06:10.802Z,32.28
2018-06-04T03:06:44.055Z,31.00
2018-06-04T03:07:17.317Z,29.87
2018-06-04T03:07:50.495Z,26.73
2018-06-04T03:08:23.728Z,28.40
2018-06-04T03:08:56.928Z,29.85
2018-06-04T03:09:30.182Z,26.05
2018-06-04T03:10:03.525Z,25.68
2018-06-04T03:10:36.768Z,29.80
2018-06-04T03:11:10.046Z,32.35
2018-06-04T03:11:43.332Z,33.48
2018-06-04T03:12:16.550Z,32.65
2018-06-04T03:12:49.806Z,28.85
2018-06-04T03:13:23.053Z,33.98
2018-06-04T03:13:56.301Z,34.33
2018-06-04T03:14:29.560Z,31.82
2018-06-04T03:15:02.812Z,30.75
2018-06-04T03:15:36.034Z,29.37
2018-06-04T03:16:09.273Z,30.05
2018-06-04T03:16:42.952Z,30.97
2018-06-04T03:17:16.178Z,30.50
2018-06-04T03:17:49.444Z,32.90
2018-06-04T03:18:22.669Z,30.48
2018-06-04T03:18:55.888Z,30.90
2018-06-04T03:19:29.129Z,33.92
2018-06-04T03:20:02.392Z,32.30
2018-06-04T03:20:35.605Z,32.98
2018-06-04T03:21:08.848Z,38.28
2018-06-04T03:21:42.082Z,29.98
2018-06-04T03:22:15.317Z,30.02
2018-06-04T03:22:48.565Z,31.97
2018-06-04T03:23:21.800Z,38.23
2018-06-04T03:23:55.043Z,29.42
2018-06-04T03:24:28.262Z,32.35
2018-06-04T03:25:01.502Z,33.35
2018-06-04T03:25:34.724Z,31.52
2018-06-04T03:26:08.050Z,33.92
2018-06-04T03:26:41.252Z,32.13
2018-06-04T03:27:14.517Z,34.85
2018-06-04T03:27:47.762Z,34.23
2018-06-04T03:28:20.985Z,34.18
2018-06-04T03:28:54.204Z,34.30
2018-06-04T03:29:27.420Z,31.80
2018-06-04T03:30:00.631Z,32.42
2018-06-04T03:30:33.882Z,35.60
2018-06-04T03:31:07.153Z,33.23
2018-06-04T03:31:40.635Z,36.63
2018-06-04T03:32:13.889Z,34.03
2018-06-04T03:32:47.091Z,34.38
2018-06-04T03:33:20.311Z,33.28
2018-06-04T03:33:53.528Z,33.15
2018-06-04T03:34:26.817Z,35.15
2018-06-04T03:35:00.034Z,35.60
2018-06-04T03:35:33.235Z,35.05
2018-06-04T03:36:06.473Z,37.73
2018-06-04T03:36:39.685Z,35.58
2018-06-04T03:37:12.936Z,40.28
2018-06-04T03:37:46.159Z,36.05
2018-06-04T03:38:19.377Z,37.55
2018-06-04T03:38:52.624Z,35.85
2018-06-04T03:39:25.847Z,36.80
2018-06-04T03:39:59.116Z,39.45
2018-06-04T03:40:32.328Z,35.45
2018-06-04T03:41:07.273Z,40.28
2018-06-04T03:41:40.513Z,40.83
2018-06-04T03:42:13.744Z,39.92
2018-06-04T03:42:47.211Z,42.90
2018-06-04T03:43:20.435Z,40.80
2018-06-04T03:43:53.679Z,35.10
2018-06-04T03:44:26.944Z,42.08
2018-06-04T03:45:00.147Z,40.00
2018-06-04T03:45:33.352Z,46.95
2018-06-04T03:46:06.634Z,45.08
2018-06-04T03:46:39.847Z,40.90
2018-06-04T03:47:13.139Z,42.08
2018-06-04T03:47:46.356Z,40.30
2018-06-04T03:48:19.581Z,39.95
2018-06-04T03:48:52.789Z,42.55
2018-06-04T03:49:25.987Z,39.33
2018-06-04T03:49:59.229Z,42.43
2018-06-04T03:50:32.432Z,41.42
2018-06-04T03:51:05.708Z,39.42
2018-06-04T03:51:38.971Z,45.35
2018-06-04T03:52:12.156Z,47.65
2018-06-04T03:52:45.351Z,48.38
2018-06-04T03:53:18.565Z,46.88
2018-06-04T03:53:51.807Z,48.68
2018-06-04T03:54:25.003Z,50.03
2018-06-04T03:54:58.193Z,45.48
2018-06-04T03:55:31.401Z,46.02
2018-06-04T03:56:04.630Z,46.33
2018-06-04T03:56:37.863Z,49.25
2018-06-04T03:57:11.076Z,50.12
2018-06-04T03:57:44.326Z,48.30
2018-06-04T03:58:17.582Z,47.20
2018-06-04T03:58:50.811Z,45.88
2018-06-04T03:59:24.052Z,44.73
2018-06-04T03:59:57.254Z,47.03
2018-06-04T04:00:30.481Z,58.08
2018-06-04T04:01:03.835Z,48.95
2018-06-04T04:01:37.072Z,54.58
2018-06-04T04:02:10.299Z,52.78
2018-06-04T04:02:43.496Z,55.65
2018-06-04T04:03:16.763Z,51.02
2018-06-04T04:03:50.012Z,54.48
2018-06-04T04:04:23.241Z,52.43
2018-06-04T04:04:56.496Z,51.42
2018-06-04T04:05:29.804Z,56.48
2018-06-04T04:06:03.105Z,54.63
2018-06-04T04:06:36.608Z,56.25
2018-06-04T04:07:09.833Z,57.20
2018-06-04T04:07:43.171Z,58.58
2018-06-04T04:08:16.492Z,54.48
2018-06-04T04:08:49.671Z,54.38
2018-06-04T04:09:22.917Z,60.15
2018-06-04T04:09:56.145Z,60.65
2018-06-04T04:10:29.383Z,59.30
2018-06-04T04:11:02.611Z,61.50
2018-06-04T04:11:36.034Z,64.12
2018-06-04T04:12:09.268Z,56.08
2018-06-04T04:12:42.534Z,61.50
2018-06-04T04:13:15.747Z,64.05
2018-06-04T04:13:48.979Z,66.80
2018-06-04T04:14:22.191Z,65.35
2018-06-04T04:14:55.422Z,64.40
2018-06-04T04:15:28.680Z,64.65
2018-06-04T04:16:01.941Z,62.70
2018-06-04T04:16:37.224Z,61.50
2018-06-04T04:17:10.488Z,57.75
2018-06-04T04:17:43.766Z,60.83
2018-06-04T04:18:17.064Z,66.30
2018-06-04T04:18:50.274Z,67.12
2018-06-04T04:19:23.606Z,72.78
2018-06-04T04:19:56.813Z,73.57
2018-06-04T04:20:30.089Z,69.62
2018-06-04T04:21:03.314Z,73.87
2018-06-04T04:21:36.571Z,71.90
2018-06-04T04:22:09.804Z,68.60
2018-06-04T04:22:43.044Z,72.82
2018-06-04T04:23:16.254Z,64.70
2018-06-04T04:23:49.531Z,69.82
2018-06-04T04:24:22.756Z,69.05
2018-06-04T04:24:56.055Z,69.27
2018-06-04T04:25:29.319Z,66.95
2018-06-04T04:26:02.521Z,67.40
2018-06-04T04:26:35.743Z,66.70
2018-06-04T04:27:08.998Z,68.47
2018-06-04T04:27:42.262Z,63.80
2018-06-04T04:28:15.477Z,54.42
2018-06-04T04:28:48.700Z,54.53
2018-06-04T04:29:21.937Z,62.80
2018-06-04T04:29:55.150Z,58.63
2018-06-04T04:30:28.527Z,70.78
2018-06-04T04:31:01.756Z,73.30
2018-06-04T04:31:35.048Z,68.85
2018-06-04T04:32:08.285Z,55.25
2018-06-04T04:32:41.502Z,61.18
2018-06-04T04:33:14.759Z,64.65
2018-06-04T04:33:47.997Z,65.12
2018-06-04T04:34:21.184Z,65.12
2018-06-04T04:34:54.417Z,62.65
2018-06-04T04:35:27.594Z,58.92
2018-06-04T04:36:00.819Z,61.25
2018-06-04T04:36:34.033Z,67.58
2018-06-04T04:37:07.251Z,70.65
2018-06-04T04:37:40.540Z,70.08
2018-06-04T04:38:13.739Z,62.35
2018-06-04T04:38:46.947Z,66.42
2018-06-04T04:39:20.225Z,73.22
2018-06-04T04:39:53.452Z,71.40
2018-06-04T04:40:26.687Z,69.05
2018-06-04T04:40:59.923Z,65.57
2018-06-04T04:41:33.499Z,67.03
2018-06-04T04:42:06.778Z,69.62
2018-06-04T04:42:40.053Z,65.87
2018-06-04T04:43:13.271Z,64.82
2018-06-04T04:43:46.535Z,71.72
2018-06-04T04:44:19.723Z,69.50
2018-06-04T04:44:52.995Z,70.95
2018-06-04T04:45:26.253Z,69.55
2018-06-04T04:45:59.499Z,67.75
2018-06-04T04:46:32.791Z,69.47
2018-06-04T04:47:06.036Z,57.73
2018-06-04T04:47:39.266Z,58.10
2018-06-04T04:48:12.474Z,53.92
2018-06-04T04:48:45.713Z,41.48
2018-06-04T04:49:19.009Z,54.23
2018-06-04T04:49:52.263Z,52.67
2018-06-04T04:50:25.506Z,54.85
2018-06-04T04:50:58.733Z,52.17
2018-06-04T04:51:31.962Z,58.80
2018-06-04T04:52:05.222Z,52.35
2018-06-04T04:52:38.475Z,55.55
2018-06-04T04:53:11.714Z,62.88
2018-06-04T04:53:44.921Z,62.50
2018-06-04T04:54:18.169Z,54.50
2018-06-04T04:54:51.381Z,51.40
2018-06-04T04:55:24.650Z,55.48
2018-06-04T04:55:57.899Z,56.45
2018-06-04T04:56:31.153Z,60.58
2018-06-04T04:57:04.430Z,55.65
2018-06-04T04:57:37.655Z,38.65
2018-06-04T04:58:10.985Z,51.00
2018-06-04T04:58:44.233Z,45.33
2018-06-04T04:59:17.477Z,51.37
2018-06-04T04:59:50.722Z,51.13
2018-06-04T05:00:24.041Z,52.20
2018-06-04T05:00:57.225Z,51.60
2018-06-04T05:01:30.479Z,57.78
2018-06-04T05:02:03.741Z,61.15
2018-06-04T05:02:36.967Z,59.10
2018-06-04T05:03:10.231Z,58.50
2018-06-04T05:03:43.420Z,52.25
2018-06-04T05:04:16.648Z,48.42
2018-06-04T05:04:49.868Z,56.58
2018-06-04T05:05:23.123Z,47.85
2018-06-04T05:05:56.351Z,53.65
2018-06-04T05:06:29.574Z,57.80
2018-06-04T05:07:02.809Z,58.33
2018-06-04T05:07:36.031Z,56.48
2018-06-04T05:08:09.267Z,58.23
2018-06-04T05:08:42.519Z,53.95
2018-06-04T05:09:15.733Z,55.98
2018-06-04T05:09:48.963Z,51.75
2018-06-04T05:10:22.208Z,48.05
2018-06-04T05:10:55.465Z,52.27
2018-06-04T05:11:28.675Z,49.83
2018-06-04T05:12:01.896Z,57.62
2018-06-04T05:12:35.163Z,55.67
2018-06-04T05:13:08.427Z,53.42
2018-06-04T05:13:41.635Z,51.47
2018-06-04T05:14:15.207Z,51.68
2018-06-04T05:14:48.451Z,52.33
2018-06-04T05:15:21.702Z,57.62
2018-06-04T05:15:54.923Z,47.70
2018-06-04T05:16:28.177Z,55.88
2018-06-04T05:17:01.417Z,54.83
2018-06-04T05:17:34.667Z,51.70
2018-06-04T05:18:07.871Z,52.93
2018-06-04T05:18:41.087Z,54.60
2018-06-04T05:19:14.337Z,60.08
2018-06-04T05:19:47.577Z,53.50
2018-06-04T05:20:20.805Z,56.68
2018-06-04T05:20:54.028Z,47.50
2018-06-04T05:21:27.369Z,47.67
2018-06-04T05:22:00.599Z,52.62
2018-06-04T05:22:33.813Z,53.05
2018-06-04T05:23:07.047Z,56.83
2018-06-04T05:23:40.223Z,57.53
2018-06-04T05:24:13.469Z,53.08
2018-06-04T05:24:46.679Z,52.67
2018-06-04T05:25:19.901Z,47.78
2018-06-04T05:25:53.373Z,52.33
2018-06-04T05:26:26.617Z,49.33
2018-06-04T05:26:59.855Z,49.23
2018-06-04T05:27:33.063Z,46.40
2018-06-04T05:28:06.293Z,51.83
2018-06-04T05:28:39.518Z,52.03
2018-06-04T05:29:12.719Z,48.85
2018-06-04T05:29:45.960Z,48.02
2018-06-04T05:30:19.182Z,50.17
2018-06-04T05:30:52.398Z,44.65
2018-06-04T05:31:25.621Z,46.13
2018-06-04T05:31:58.844Z,46.58
2018-06-04T05:32:32.055Z,42.58
2018-06-04T05:33:05.354Z,47.43
2018-06-04T05:33:38.629Z,47.20
2018-06-04T05:34:11.873Z,45.60
2018-06-04T05:34:45.107Z,46.33
2018-06-04T05:35:18.393Z,52.27
2018-06-04T05:35:51.618Z,51.98
2018-06-04T05:36:24.855Z,51.65
2018-06-04T05:36:58.089Z,47.55
2018-06-04T05:37:31.359Z,43.78
2018-06-04T05:38:04.641Z,41.30
2018-06-04T05:38:37.845Z,40.83
2018-06-04T05:39:11.287Z,47.83
2018-06-04T05:39:44.511Z,48.55
2018-06-04T05:40:17.767Z,43.13
2018-06-04T05:40:51.007Z,46.92
2018-06-04T05:41:24.248Z,50.73
2018-06-04T05:41:57.505Z,45.00
2018-06-04T05:42:30.732Z,44.95
2018-06-04T05:43:03.977Z,44.03
2018-06-04T05:43:37.193Z,48.92
2018-06-04T05:44:10.483Z,46.13
2018-06-04T05:44:43.723Z,48.55
2018-06-04T05:45:17.017Z,49.18
2018-06-04T05:45:50.635Z,47.13
2018-06-04T05:46:23.851Z,48.02
2018-06-04T05:46:57.087Z,45.55
2018-06-04T05:47:30.305Z,45.38
2018-06-04T05:48:03.627Z,43.38
2018-06-04T05:48:36.875Z,39.75
2018-06-04T05:49:10.087Z,46.30
2018-06-04T05:49:43.393Z,46.75
2018-06-04T05:50:16.623Z,41.45
2018-06-04T05:50:49.855Z,35.15
2018-06-04T05:51:23.081Z,38.38
2018-06-04T05:51:56.319Z,38.80
2018-06-04T05:52:29.576Z,35.08
2018-06-04T05:53:02.796Z,41.05
2018-06-04T05:53:36.041Z,32.03
2018-06-04T05:54:09.573Z,35.28
2018-06-04T05:54:42.947Z,31.20
2018-06-04T05:55:16.205Z,34.78
2018-06-04T05:55:49.465Z,34.23
2018-06-04T05:56:22.695Z,32.38
2018-06-04T05:56:55.969Z,31.95
2018-06-04T05:57:29.207Z,30.32
2018-06-04T05:58:02.565Z,30.82
2018-06-04T05:58:35.813Z,32.93
2018-06-04T05:59:09.063Z,28.57
2018-06-04T05:59:42.293Z,25.05
2018-06-04T06:00:15.556Z,32.33
2018-06-04T06:00:48.782Z,30.95
2018-06-04T06:01:22.043Z,34.73
2018-06-04T06:01:55.245Z,34.83
2018-06-04T06:02:28.487Z,29.57
2018-06-04T06:03:01.708Z,27.90
2018-06-04T06:03:34.941Z,30.62
2018-06-04T06:04:08.191Z,32.35
2018-06-04T06:04:41.441Z,30.82
2018-06-04T06:05:14.695Z,29.23
2018-06-04T06:05:47.969Z,34.38
2018-06-04T06:06:21.211Z,30.72
2018-06-04T06:06:54.439Z,33.02
2018-06-04T06:07:27.665Z,30.10
2018-06-04T06:08:00.942Z,32.15
2018-06-04T06:08:34.164Z,30.97
2018-06-04T06:09:09.492Z,33.73
2018-06-04T06:09:42.703Z,32.83
2018-06-04T06:10:15.943Z,33.65
2018-06-04T06:11:20.165Z,33.83
2018-06-04T06:11:53.385Z,29.48
2018-06-04T06:12:26.653Z,34.58
2018-06-04T06:12:59.856Z,31.97
2018-06-04T06:13:33.107Z,30.62
2018-06-04T06:14:06.351Z,31.40
2018-06-04T06:14:39.615Z,32.73
2018-06-04T06:15:12.865Z,35.35
2018-06-04T06:15:46.095Z,32.30
2018-06-04T06:16:19.330Z,31.97
2018-06-04T06:16:52.645Z,32.75
2018-06-04T06:17:25.870Z,35.92
2018-06-04T06:17:59.075Z,29.48
2018-06-04T06:18:32.288Z,32.35
2018-06-04T06:19:05.535Z,34.40
2018-06-04T06:19:38.738Z,30.57
2018-06-04T06:20:11.971Z,29.20
2018-06-04T06:20:45.183Z,33.08
2018-06-04T06:21:18.437Z,29.72
2018-06-04T06:21:51.678Z,32.70
2018-06-04T06:22:24.887Z,34.90
2018-06-04T06:22:58.135Z,31.40
2018-06-04T06:23:31.408Z,32.45
2018-06-04T06:24:04.641Z,29.30
2018-06-04T06:24:37.866Z,34.13
2018-06-04T06:25:11.083Z,28.07
2018-06-04T06:25:44.321Z,28.05
2018-06-04T06:26:17.795Z,31.42
2018-06-04T06:26:50.987Z,33.20
2018-06-04T06:27:24.229Z,32.63
2018-06-04T06:27:57.488Z,32.45
2018-06-04T06:28:30.704Z,28.23
2018-06-04T06:29:03.993Z,33.38
2018-06-04T06:29:37.227Z,27.45
2018-06-04T06:30:10.419Z,31.87
2018-06-04T06:30:43.686Z,29.95
2018-06-04T06:31:16.900Z,31.93
2018-06-04T06:31:50.125Z,30.65
2018-06-04T06:32:23.367Z,34.60
2018-06-04T06:32:56.569Z,31.77
2018-06-04T06:33:29.774Z,33.02
2018-06-04T06:34:03.065Z,35.17
2018-06-04T06:34:36.304Z,33.60
2018-06-04T06:35:09.546Z,32.83
2018-06-04T06:35:42.815Z,33.20
2018-06-04T06:36:16.049Z,32.85
2018-06-04T06:36:49.271Z,34.83
2018-06-04T06:37:22.491Z,29.35
2018-06-04T06:37:55.741Z,31.82
2018-06-04T06:38:28.964Z,32.67
2018-06-04T06:39:02.293Z,32.45
2018-06-04T06:39:35.615Z,32.15
2018-06-04T06:40:08.861Z,30.02
2018-06-04T06:40:42.113Z,32.63
2018-06-04T06:41:15.382Z,30.65
2018-06-04T06:41:48.689Z,30.97
2018-06-04T06:42:21.917Z,30.85
2018-06-04T06:42:55.195Z,31.75
2018-06-04T06:43:28.475Z,32.85
2018-06-04T06:44:01.716Z,30.12
2018-06-04T06:44:35.045Z,29.55
2018-06-04T06:45:09.200Z,28.12
2018-06-04T06:45:42.436Z,29.42
2018-06-04T06:46:15.698Z,28.42
2018-06-04T06:46:48.965Z,28.65
2018-06-04T06:47:22.231Z,26.80
2018-06-04T06:47:55.450Z,28.77
2018-06-04T06:48:28.756Z,29.67
2018-06-04T06:49:01.991Z,26.57
2018-06-04T06:49:35.219Z,28.87
2018-06-04T06:50:08.579Z,25.95
2018-06-04T06:50:41.828Z,26.77
2018-06-04T06:51:15.221Z,28.92
2018-06-04T06:51:48.486Z,25.32
2018-06-04T06:52:21.764Z,27.65
2018-06-04T06:52:55.079Z,28.23
2018-06-04T06:53:28.316Z,23.83
2018-06-04T06:54:01.646Z,25.68
2018-06-04T06:54:34.915Z,28.32
2018-06-04T06:55:08.172Z,28.73
2018-06-04T06:55:41.428Z,28.02
2018-06-04T06:56:14.654Z,26.82
2018-06-04T06:56:47.875Z,24.67
2018-06-04T06:57:21.132Z,23.47
2018-06-04T06:57:54.371Z,22.70
2018-06-04T06:58:27.590Z,19.10
2018-06-04T06:59:00.794Z,20.45
2018-06-04T06:59:34.053Z,17.95
2018-06-04T07:00:08.551Z,17.37
2018-06-04T07:00:41.842Z,16.50
2018-06-04T07:01:15.058Z,18.20
2018-06-04T07:01:48.252Z,17.12
2018-06-04T07:02:21.516Z,18.77
2018-06-04T07:02:54.743Z,18.60
2018-06-04T07:03:27.981Z,17.92
2018-06-04T07:04:01.219Z,18.87
2018-06-04T07:04:34.457Z,21.40
2018-06-04T07:05:07.695Z,22.80
2018-06-04T07:05:40.926Z,20.62
2018-06-04T07:06:14.198Z,21.52
2018-06-04T07:06:47.471Z,20.30
2018-06-04T07:07:20.691Z,21.55
2018-06-04T07:07:53.955Z,21.55
2018-06-04T07:08:27.175Z,22.00
2018-06-04T07:09:00.382Z,23.87
2018-06-04T07:09:33.623Z,21.57
2018-06-04T07:10:06.897Z,23.87
2018-06-04T07:10:40.147Z,20.52
2018-06-04T07:11:13.365Z,20.17
2018-06-04T07:11:46.598Z,20.15